createdAt,value
2023-03-20T00:00:51.879Z,16.77
2023-03-20T00:02:00.331Z,16.20
2023-03-20T00:03:21.991Z,14.48
2023-03-20T00:04:44.550Z,14.00
2023-03-20T00:06:13.048Z,14.63
2023-03-20T00:07:35.988Z,13.20
2023-03-20T00:08:58.621Z,11.18
2023-03-20T00:10:20.969Z,12.57
2023-03-20T00:11:49.159Z,13.95
2023-03-20T00:13:16.751Z,13.63
2023-03-20T00:14:38.445Z,11.60
2023-03-20T00:16:00.963Z,11.52
2023-03-20T00:17:22.524Z,12.77
2023-03-20T00:18:45.159Z,10.85
2023-03-20T00:20:13.760Z,14.15
2023-03-20T00:21:36.254Z,12.75
2023-03-20T00:23:00.085Z,12.50
2023-03-20T00:24:22.259Z,11.50
2023-03-20T00:25:46.925Z,12.85
2023-03-20T00:27:13.377Z,12.57
2023-03-20T00:28:42.053Z,10.40
2023-03-20T00:30:05.741Z,14.02
2023-03-20T00:31:30.334Z,10.48
2023-03-20T00:32:52.476Z,12.95
2023-03-20T00:34:17.206Z,13.63
2023-03-20T00:35:40.778Z,11.35
2023-03-20T00:37:04.095Z,9.05
2023-03-20T00:38:28.947Z,11.52
2023-03-20T00:39:51.631Z,13.02
2023-03-20T00:41:26.160Z,10.88
2023-03-20T00:42:52.575Z,11.65
2023-03-20T00:44:22.988Z,10.90
2023-03-20T00:45:47.730Z,14.52
2023-03-20T00:47:13.851Z,10.82
2023-03-20T00:48:36.788Z,12.27
2023-03-20T00:49:59.004Z,15.20
2023-03-20T00:51:21.497Z,12.15
2023-03-20T00:52:44.461Z,14.10
2023-03-20T00:54:13.772Z,11.35
2023-03-20T00:55:36.473Z,11.43
2023-03-20T00:57:00.470Z,11.77
2023-03-20T00:58:22.981Z,12.10
2023-03-20T00:59:52.367Z,10.80
2023-03-20T01:01:14.937Z,13.82
2023-03-20T01:02:36.676Z,12.48
2023-03-20T01:04:00.403Z,11.00
2023-03-20T01:05:22.382Z,11.07
2023-03-20T01:06:45.024Z,12.63
2023-03-20T01:08:13.471Z,14.05
2023-03-20T01:09:37.353Z,11.93
2023-03-20T01:11:00.165Z,13.63
2023-03-20T01:12:21.749Z,13.40
2023-03-20T01:13:44.266Z,13.32
2023-03-20T01:15:17.344Z,12.88
2023-03-20T01:16:40.115Z,12.43
2023-03-20T01:18:01.671Z,14.52
2023-03-20T01:19:24.167Z,12.45
2023-03-20T01:20:46.068Z,13.77
2023-03-20T01:22:09.463Z,12.82
2023-03-20T01:23:36.700Z,14.23
2023-03-20T01:24:59.604Z,14.60
2023-03-20T01:26:28.110Z,15.93
2023-03-20T01:27:51.248Z,15.90
2023-03-20T01:29:19.696Z,13.00
2023-03-20T01:30:42.204Z,13.88
2023-03-20T01:32:03.918Z,13.05
2023-03-20T01:33:27.740Z,13.93
2023-03-20T01:34:49.291Z,15.48
2023-03-20T01:36:12.739Z,14.32
2023-03-20T01:37:34.580Z,11.75
2023-03-20T01:39:02.531Z,12.63
2023-03-20T01:40:44.546Z,12.85
2023-03-20T01:42:07.213Z,13.10
2023-03-20T01:43:30.754Z,11.45
2023-03-20T01:44:52.793Z,13.23
2023-03-20T01:46:19.376Z,16.23
2023-03-20T01:47:42.035Z,12.52
2023-03-20T01:49:49.482Z,11.65
2023-03-20T01:51:11.969Z,14.95
2023-03-20T01:52:33.557Z,14.93
2023-03-20T01:53:59.750Z,12.35
2023-03-20T01:55:22.537Z,12.95
2023-03-20T01:56:50.294Z,15.13
2023-03-20T01:58:16.274Z,15.38
2023-03-20T01:59:44.866Z,15.68
2023-03-20T02:01:12.253Z,15.63
2023-03-20T02:02:33.862Z,11.57
2023-03-20T02:03:57.326Z,13.80
2023-03-20T02:05:21.922Z,11.65
2023-03-20T02:06:45.912Z,15.00
2023-03-20T02:08:22.344Z,12.70
2023-03-20T02:09:44.868Z,13.80
2023-03-20T02:11:07.683Z,16.40
2023-03-20T02:12:31.568Z,16.20
2023-03-20T02:13:57.795Z,14.55
2023-03-20T02:15:19.562Z,12.35
2023-03-20T02:16:42.576Z,16.80
2023-03-20T02:18:04.367Z,14.98
2023-03-20T02:19:32.845Z,14.50
2023-03-20T02:21:37.789Z,13.48
2023-03-20T02:23:48.432Z,14.18
2023-03-20T02:25:38.789Z,19.40
2023-03-20T02:27:14.541Z,15.30
2023-03-20T02:29:14.396Z,15.13
2023-03-20T02:30:55.732Z,13.30
2023-03-20T02:33:02.383Z,14.88
2023-03-20T02:34:55.377Z,15.40
2023-03-20T02:36:51.977Z,19.98
2023-03-20T02:38:25.193Z,14.50
2023-03-20T02:39:57.127Z,15.45
2023-03-20T02:41:26.127Z,13.20
2023-03-20T02:42:57.412Z,16.20
2023-03-20T02:44:30.213Z,17.08
2023-03-20T02:45:37.352Z,20.17
2023-03-20T02:46:51.127Z,13.30
2023-03-20T02:48:01.170Z,15.43
2023-03-20T02:49:10.376Z,17.73
2023-03-20T02:50:17.434Z,17.15
2023-03-20T02:51:24.944Z,15.32
2023-03-20T02:52:37.146Z,17.90
2023-03-20T02:53:49.245Z,16.10
2023-03-20T02:55:07.116Z,14.43
2023-03-20T02:56:14.555Z,13.13
2023-03-20T02:57:23.325Z,15.43
2023-03-20T02:58:30.992Z,15.63
2023-03-20T02:59:41.424Z,15.02
2023-03-20T03:00:50.689Z,15.82
2023-03-20T03:01:56.249Z,16.83
2023-03-20T03:03:05.847Z,19.30
2023-03-20T03:04:12.630Z,16.10
2023-03-20T03:05:19.862Z,14.57
2023-03-20T03:06:27.467Z,17.48
2023-03-20T03:07:33.410Z,16.38
2023-03-20T03:08:42.302Z,18.50
2023-03-20T03:09:49.092Z,19.00
2023-03-20T03:10:56.459Z,14.32
2023-03-20T03:12:03.086Z,14.95
2023-03-20T03:13:11.248Z,17.60
2023-03-20T03:14:21.325Z,16.23
2023-03-20T03:15:29.915Z,14.65
2023-03-20T03:16:37.557Z,17.30
2023-03-20T03:17:43.192Z,18.30
2023-03-20T03:18:46.666Z,16.65
2023-03-20T03:19:53.310Z,14.98
2023-03-20T03:20:58.226Z,19.38
2023-03-20T03:22:01.708Z,19.95
2023-03-20T03:23:04.861Z,21.33
2023-03-20T03:24:21.762Z,19.88
2023-03-20T03:25:37.102Z,18.88
2023-03-20T03:26:40.985Z,20.02
2023-03-20T03:27:46.954Z,16.25
2023-03-20T03:28:51.564Z,16.83
2023-03-20T03:29:58.671Z,17.23
2023-03-20T03:31:00.873Z,18.17
2023-03-20T03:32:07.129Z,16.45
2023-03-20T03:33:17.038Z,19.55
2023-03-20T03:34:22.620Z,20.40
2023-03-20T03:35:24.542Z,19.00
2023-03-20T03:36:38.045Z,17.33
2023-03-20T03:37:48.079Z,18.58
2023-03-20T03:39:02.512Z,21.13
2023-03-20T03:40:14.089Z,20.25
2023-03-20T03:41:24.414Z,18.88
2023-03-20T03:42:33.875Z,21.20
2023-03-20T03:43:44.416Z,21.23
2023-03-20T03:44:53.954Z,16.17
2023-03-20T03:46:01.922Z,17.17
2023-03-20T03:47:08.398Z,17.50
2023-03-20T03:48:16.126Z,18.88
2023-03-20T03:49:22.502Z,24.85
2023-03-20T03:50:29.440Z,21.35
2023-03-20T03:51:37.747Z,21.23
2023-03-20T03:52:41.854Z,19.25
2023-03-20T03:53:49.632Z,19.80
2023-03-20T03:54:58.684Z,16.63
2023-03-20T03:56:03.882Z,16.85
2023-03-20T03:57:09.550Z,17.63
2023-03-20T03:58:13.655Z,18.60
2023-03-20T03:59:28.192Z,15.30
2023-03-20T04:00:33.540Z,14.00
2023-03-20T04:01:38.007Z,16.58
2023-03-20T04:02:41.441Z,16.80
2023-03-20T04:03:49.908Z,15.07
2023-03-20T04:04:54.288Z,17.77
2023-03-20T04:05:59.358Z,14.48
2023-03-20T04:07:11.162Z,18.00
2023-03-20T04:08:16.159Z,12.35
2023-03-20T04:09:17.666Z,19.55
2023-03-20T04:10:28.228Z,16.05
2023-03-20T04:11:37.521Z,19.02
2023-03-20T04:12:48.078Z,16.13
2023-03-20T04:13:51.303Z,16.55
2023-03-20T04:14:53.875Z,13.45
2023-03-20T04:15:55.660Z,17.25
2023-03-20T04:16:58.161Z,20.05
2023-03-20T04:17:59.841Z,17.60
2023-03-20T04:19:02.354Z,17.13
2023-03-20T04:20:05.313Z,12.73
2023-03-20T04:21:16.007Z,16.08
2023-03-20T04:22:17.564Z,21.15
2023-03-20T04:23:20.214Z,15.32
2023-03-20T04:24:22.022Z,15.80
2023-03-20T04:25:27.369Z,16.90
2023-03-20T04:26:28.919Z,14.48
2023-03-20T04:27:31.546Z,18.75
2023-03-20T04:28:34.477Z,17.45
2023-03-20T04:29:39.216Z,18.30
2023-03-20T04:30:40.994Z,16.80
2023-03-20T04:31:43.484Z,13.65
2023-03-20T04:32:45.088Z,19.17
2023-03-20T04:33:47.738Z,15.73
2023-03-20T04:34:49.563Z,14.98
2023-03-20T04:35:52.227Z,15.48
2023-03-20T04:36:54.813Z,14.07
2023-03-20T04:37:56.333Z,24.85
2023-03-20T04:39:02.469Z,15.20
2023-03-20T04:40:04.682Z,17.25
2023-03-20T04:41:08.021Z,22.63
2023-03-20T04:42:10.012Z,16.55
2023-03-20T04:43:13.012Z,16.88
2023-03-20T04:44:16.096Z,15.80
2023-03-20T04:45:18.746Z,16.20
2023-03-20T04:46:23.441Z,15.18
2023-03-20T04:47:26.110Z,18.85
2023-03-20T04:48:27.934Z,16.23
2023-03-20T04:49:30.446Z,18.20
2023-03-20T04:50:32.266Z,20.05
2023-03-20T04:51:34.756Z,16.58
2023-03-20T04:52:37.333Z,19.60
2023-03-20T04:53:39.078Z,14.95
2023-03-20T04:54:41.569Z,16.27
2023-03-20T04:55:43.794Z,17.58
2023-03-20T04:56:46.477Z,17.67
2023-03-20T04:57:48.248Z,15.98
2023-03-20T04:58:50.813Z,14.93
2023-03-20T04:59:57.893Z,16.73
2023-03-20T05:01:00.452Z,13.82
2023-03-20T05:02:14.959Z,17.45
2023-03-20T05:03:23.924Z,14.43
2023-03-20T05:04:26.307Z,14.77
2023-03-20T05:05:29.406Z,16.05
2023-03-20T05:06:32.617Z,15.18
2023-03-20T05:07:34.147Z,14.52
2023-03-20T05:08:36.695Z,19.23
2023-03-20T05:09:38.774Z,15.27
2023-03-20T05:10:41.270Z,15.68
2023-03-20T05:11:43.575Z,16.40
2023-03-20T05:12:46.284Z,14.40
2023-03-20T05:13:48.145Z,15.38
2023-03-20T05:14:50.711Z,15.63
2023-03-20T05:15:53.799Z,14.57
2023-03-20T05:17:06.471Z,13.73
2023-03-20T05:18:09.698Z,20.98
2023-03-20T05:19:12.187Z,20.83
2023-03-20T05:20:14.408Z,17.85
2023-03-20T05:21:16.964Z,18.67
2023-03-20T05:22:18.662Z,18.27
2023-03-20T05:23:21.151Z,17.30
2023-03-20T05:24:22.836Z,21.02
2023-03-20T05:25:25.330Z,14.20
2023-03-20T05:26:27.009Z,18.27
2023-03-20T05:27:29.641Z,19.25
2023-03-20T05:28:31.187Z,16.13
2023-03-20T05:29:33.741Z,17.83
2023-03-20T05:30:45.289Z,16.63
2023-03-20T05:31:49.145Z,18.35
2023-03-20T05:32:56.220Z,18.83
2023-03-20T05:34:01.107Z,18.20
2023-03-20T05:35:02.668Z,23.67
2023-03-20T05:36:06.063Z,17.63
2023-03-20T05:37:08.666Z,19.27
2023-03-20T05:38:22.616Z,22.27
2023-03-20T05:39:25.143Z,15.50
2023-03-20T05:40:27.206Z,22.25
2023-03-20T05:41:29.705Z,17.00
2023-03-20T05:42:41.264Z,23.50
2023-03-20T05:43:44.232Z,19.80
2023-03-20T05:44:46.056Z,19.60
2023-03-20T05:45:50.329Z,18.30
2023-03-20T05:46:54.431Z,22.65
2023-03-20T05:47:56.960Z,22.63
2023-03-20T05:49:01.561Z,28.35
2023-03-20T05:50:04.438Z,21.73
2023-03-20T05:51:06.936Z,19.35
2023-03-20T05:52:09.571Z,19.73
2023-03-20T05:53:11.954Z,30.77
2023-03-20T05:54:14.575Z,18.23
2023-03-20T05:55:16.602Z,22.20
2023-03-20T05:56:19.272Z,20.67
2023-03-20T05:57:20.916Z,23.10
2023-03-20T05:58:23.727Z,27.02
2023-03-20T05:59:25.366Z,25.95
2023-03-20T06:00:28.042Z,21.77
2023-03-20T06:01:39.571Z,20.95
2023-03-20T06:02:53.643Z,22.90
2023-03-20T06:03:55.298Z,22.38
2023-03-20T06:04:57.977Z,25.75
2023-03-20T06:05:59.927Z,24.00
2023-03-20T06:07:02.613Z,23.60
2023-03-20T06:08:04.806Z,23.90
2023-03-20T06:09:07.349Z,24.13
2023-03-20T06:10:10.309Z,23.30
2023-03-20T06:11:12.834Z,23.65
2023-03-20T06:12:14.647Z,25.90
2023-03-20T06:13:17.426Z,21.95
2023-03-20T06:14:18.951Z,20.17
2023-03-20T06:15:21.786Z,21.13
2023-03-20T06:16:24.092Z,22.92
2023-03-20T06:17:26.775Z,21.42
2023-03-20T06:18:30.594Z,23.17
2023-03-20T06:19:32.262Z,21.88
2023-03-20T06:20:35.208Z,25.15
2023-03-20T06:21:36.737Z,21.70
2023-03-20T06:22:39.292Z,24.23
2023-03-20T06:23:41.077Z,21.83
2023-03-20T06:24:44.316Z,21.23
2023-03-20T06:25:46.062Z,24.40
2023-03-20T06:26:48.685Z,21.23
2023-03-20T06:28:01.486Z,21.58
2023-03-20T06:29:03.898Z,19.40
2023-03-20T06:30:07.845Z,21.85
2023-03-20T06:31:09.891Z,17.08
2023-03-20T06:32:15.236Z,17.52
2023-03-20T06:33:17.906Z,16.88
2023-03-20T06:34:21.391Z,18.77
2023-03-20T06:35:23.974Z,17.55
2023-03-20T06:36:25.837Z,17.90
2023-03-20T06:37:33.308Z,18.42
2023-03-20T06:38:34.886Z,14.65
2023-03-20T06:39:37.761Z,17.00
2023-03-20T06:40:49.318Z,17.13
2023-03-20T06:41:51.844Z,16.00
2023-03-20T06:43:04.746Z,57.80
2023-03-20T06:44:06.754Z,17.23
2023-03-20T06:45:11.103Z,15.07
2023-03-20T06:46:12.770Z,18.73
2023-03-20T06:47:16.445Z,15.57
2023-03-20T06:48:21.869Z,19.85
2023-03-20T06:49:26.172Z,16.08
2023-03-20T06:50:27.747Z,16.65
2023-03-20T06:51:31.550Z,17.63
2023-03-20T06:52:35.570Z,12.82
2023-03-20T06:53:39.557Z,20.33
2023-03-20T06:54:41.997Z,21.98
2023-03-20T06:55:44.670Z,14.13
2023-03-20T06:56:46.597Z,12.45
2023-03-20T06:57:49.115Z,13.23
2023-03-20T06:58:50.977Z,15.05
2023-03-20T06:59:53.635Z,17.25
2023-03-20T07:00:55.316Z,19.30
2023-03-20T07:02:01.454Z,14.68
2023-03-20T07:03:03.641Z,12.93
2023-03-20T07:04:06.807Z,12.63
2023-03-20T07:05:10.378Z,20.98
2023-03-20T07:06:14.108Z,13.60
2023-03-20T07:07:26.801Z,17.00
2023-03-20T07:08:29.043Z,19.75
2023-03-20T07:09:31.552Z,13.90
2023-03-20T07:10:44.055Z,13.48
2023-03-20T07:11:45.882Z,9.65
2023-03-20T07:12:49.306Z,14.68
2023-03-20T07:13:51.290Z,9.40
2023-03-20T07:14:53.838Z,14.32
2023-03-20T07:16:07.507Z,13.48
2023-03-20T07:17:19.144Z,13.02
2023-03-20T07:18:22.248Z,13.90
2023-03-20T07:19:25.433Z,9.88
2023-03-20T07:20:28.619Z,10.77
2023-03-20T07:21:31.764Z,11.35
2023-03-20T07:22:34.343Z,10.15
2023-03-20T07:23:36.229Z,12.40
2023-03-20T07:24:38.935Z,13.18
2023-03-20T07:25:51.834Z,13.02
2023-03-20T07:27:00.040Z,11.60
2023-03-20T07:28:02.624Z,12.80
2023-03-20T07:29:04.218Z,14.43
2023-03-20T07:30:08.744Z,12.77
2023-03-20T07:31:19.625Z,13.13
2023-03-20T07:32:22.149Z,11.32
2023-03-20T07:33:33.659Z,13.13
2023-03-20T07:34:36.271Z,12.15
2023-03-20T07:35:39.640Z,10.98
2023-03-20T07:36:42.624Z,12.00
2023-03-20T07:37:45.558Z,10.15
2023-03-20T07:38:48.443Z,12.45
2023-03-20T07:39:50.991Z,13.27
2023-03-20T07:40:54.352Z,15.68
2023-03-20T07:41:57.950Z,13.65
2023-03-20T07:42:59.603Z,14.25
2023-03-20T07:44:02.323Z,13.23
2023-03-20T07:45:04.984Z,20.17
2023-03-20T07:46:09.606Z,13.73
2023-03-20T07:47:12.222Z,15.32
2023-03-20T07:48:23.891Z,13.60
2023-03-20T07:49:26.394Z,15.05
2023-03-20T07:50:28.002Z,12.27
2023-03-20T07:51:32.231Z,12.23
2023-03-20T07:52:33.970Z,14.00
2023-03-20T07:53:36.964Z,13.05
2023-03-20T07:54:38.507Z,17.30
2023-03-20T07:55:41.362Z,15.40
2023-03-20T07:56:43.330Z,17.20
2023-03-20T07:57:45.849Z,15.13
2023-03-20T07:58:47.507Z,17.65
2023-03-20T07:59:58.861Z,14.48
2023-03-20T08:01:03.738Z,11.95
2023-03-20T08:02:06.510Z,22.73
2023-03-20T08:03:08.123Z,13.52
2023-03-20T08:04:10.749Z,15.70
2023-03-20T08:05:26.814Z,17.10
2023-03-20T08:06:29.946Z,18.90
2023-03-20T08:07:45.232Z,18.10
2023-03-20T08:08:57.823Z,20.45
2023-03-20T08:10:00.805Z,15.18
2023-03-20T08:11:02.476Z,15.25
2023-03-20T08:12:05.470Z,15.43
2023-03-20T08:13:07.181Z,13.35
2023-03-20T08:14:11.732Z,20.15
2023-03-20T08:15:13.546Z,18.40
2023-03-20T08:16:16.230Z,17.20
2023-03-20T08:17:22.505Z,14.20
2023-03-20T08:18:25.316Z,20.52
2023-03-20T08:19:28.413Z,19.90
2023-03-20T08:20:31.647Z,15.98
2023-03-20T08:21:33.577Z,11.23
2023-03-20T08:22:49.544Z,14.10
2023-03-20T08:23:52.043Z,19.15
2023-03-20T08:24:54.583Z,14.48
2023-03-20T08:25:56.338Z,14.20
2023-03-20T08:26:59.935Z,13.25
2023-03-20T08:28:02.839Z,11.38
2023-03-20T08:29:17.327Z,19.77
2023-03-20T08:30:20.053Z,11.55
2023-03-20T08:31:32.572Z,14.90
2023-03-20T08:32:34.384Z,14.55
2023-03-20T08:33:37.200Z,14.18
2023-03-20T08:34:39.065Z,13.13
2023-03-20T08:35:42.115Z,12.88
2023-03-20T08:36:44.663Z,13.77
2023-03-20T08:37:52.053Z,16.58
2023-03-20T08:38:54.584Z,11.77
2023-03-20T08:39:56.218Z,16.38
2023-03-20T08:40:58.901Z,13.93
2023-03-20T08:42:01.596Z,13.88
2023-03-20T08:43:03.712Z,13.60
2023-03-20T08:44:16.362Z,18.73
2023-03-20T08:45:18.019Z,13.55
2023-03-20T08:46:20.790Z,20.58
2023-03-20T08:47:22.461Z,18.27
2023-03-20T08:48:26.145Z,21.33
2023-03-20T08:49:29.113Z,17.02
2023-03-20T08:50:32.101Z,11.93
2023-03-20T08:51:34.289Z,10.85
2023-03-20T08:52:37.372Z,15.52
2023-03-20T08:53:41.560Z,14.93
2023-03-20T08:54:43.112Z,13.65
2023-03-20T08:55:49.850Z,11.63
2023-03-20T08:56:51.431Z,15.98
2023-03-20T08:57:54.480Z,10.85
2023-03-20T08:58:57.242Z,15.00
2023-03-20T08:59:59.769Z,13.07
2023-03-20T09:01:05.464Z,11.90
2023-03-20T09:02:12.217Z,15.38
2023-03-20T09:03:14.817Z,14.75
2023-03-20T09:04:18.016Z,11.82
2023-03-20T09:05:20.994Z,14.63
2023-03-20T09:06:22.542Z,10.30
2023-03-20T09:07:25.553Z,12.90
2023-03-20T09:08:27.161Z,7.97
2023-03-20T09:09:32.440Z,9.02
2023-03-20T09:10:35.402Z,10.38
2023-03-20T09:11:38.353Z,7.47
2023-03-20T09:12:40.014Z,13.40
2023-03-20T09:13:42.752Z,13.20
2023-03-20T09:14:44.637Z,9.23
2023-03-20T09:15:55.058Z,10.50
2023-03-20T09:16:57.683Z,11.10
2023-03-20T09:18:02.827Z,10.57
2023-03-20T09:19:07.493Z,8.20
2023-03-20T09:20:12.608Z,7.30
2023-03-20T09:21:15.559Z,11.10
2023-03-20T09:22:18.069Z,6.68
2023-03-20T09:23:31.916Z,11.73
2023-03-20T09:24:35.832Z,11.15
2023-03-20T09:25:37.633Z,8.73
2023-03-20T09:26:40.556Z,11.57
2023-03-20T09:27:43.220Z,13.68
2023-03-20T09:28:45.944Z,12.48
2023-03-20T09:29:47.622Z,11.48
2023-03-20T09:30:59.912Z,8.43
2023-03-20T09:32:02.944Z,16.50
2023-03-20T09:33:05.716Z,6.97
2023-03-20T09:34:08.714Z,8.43
2023-03-20T09:35:10.608Z,6.82
2023-03-20T09:36:13.331Z,6.65
2023-03-20T09:37:16.773Z,6.53
2023-03-20T09:38:18.418Z,7.57
2023-03-20T09:39:20.918Z,12.55
2023-03-20T09:40:28.518Z,10.30
2023-03-20T09:44:05.835Z,6.57
2023-03-20T09:45:12.161Z,10.77
2023-03-20T09:46:33.936Z,5.25
2023-03-20T09:47:43.544Z,5.43
2023-03-20T09:49:02.199Z,6.47
2023-03-20T09:50:14.517Z,7.55
2023-03-20T09:51:25.368Z,7.72
2023-03-20T09:52:30.145Z,8.90
2023-03-20T09:53:37.695Z,10.93
2023-03-20T09:54:53.753Z,7.13
2023-03-20T09:55:58.734Z,11.85
2023-03-20T09:57:03.045Z,7.47
2023-03-20T09:58:14.405Z,8.52
2023-03-20T09:59:19.131Z,5.72
2023-03-20T10:00:28.460Z,12.13
2023-03-20T10:01:41.696Z,6.32
2023-03-20T10:02:50.984Z,7.63
2023-03-20T10:03:57.203Z,6.63
2023-03-20T10:04:59.202Z,5.78
2023-03-20T10:06:05.849Z,8.60
2023-03-20T10:07:19.100Z,6.45
2023-03-20T10:08:24.488Z,9.18
2023-03-20T10:09:31.635Z,6.05
2023-03-20T10:10:46.102Z,5.20
2023-03-20T10:12:06.672Z,7.70
2023-03-20T10:13:26.631Z,12.30
2023-03-20T10:14:36.001Z,5.80
2023-03-20T10:15:49.884Z,8.80
2023-03-20T10:17:20.667Z,8.15
2023-03-20T10:18:26.144Z,6.03
2023-03-20T10:19:30.636Z,6.80
2023-03-20T10:20:36.212Z,6.03
2023-03-20T10:21:44.500Z,11.02
2023-03-20T10:22:51.904Z,7.70
2023-03-20T10:24:00.868Z,6.93
2023-03-20T10:25:08.683Z,5.70
2023-03-20T10:26:12.738Z,6.15
2023-03-20T10:27:22.918Z,5.05
2023-03-20T10:28:32.914Z,9.02
2023-03-20T10:29:50.972Z,5.78
2023-03-20T10:31:19.201Z,5.82
2023-03-20T10:32:29.352Z,5.75
2023-03-20T10:33:46.772Z,7.57
2023-03-20T10:35:00.092Z,10.57
2023-03-20T10:36:19.274Z,8.40
2023-03-20T10:37:38.589Z,7.10
2023-03-20T10:38:47.745Z,8.38
2023-03-20T10:40:02.139Z,9.20
2023-03-20T10:41:10.662Z,8.40
2023-03-20T10:42:19.702Z,6.45
2023-03-20T10:43:24.976Z,8.15
2023-03-20T10:44:33.437Z,10.48
2023-03-20T10:45:40.760Z,7.55
2023-03-20T10:46:46.546Z,10.10
2023-03-20T10:47:53.326Z,7.50
2023-03-20T10:49:02.186Z,8.45
2023-03-20T10:50:19.318Z,6.05
2023-03-20T10:51:27.484Z,5.97
2023-03-20T10:52:33.178Z,6.93
2023-03-20T10:53:42.392Z,9.07
2023-03-20T10:54:46.892Z,6.78
2023-03-20T10:55:50.156Z,5.82
2023-03-20T10:56:55.845Z,5.60
2023-03-20T10:58:03.992Z,9.05
2023-03-20T10:59:13.381Z,7.57
2023-03-20T11:00:19.923Z,5.80
2023-03-20T11:01:25.392Z,7.15
2023-03-20T11:02:30.248Z,10.43
2023-03-20T11:03:34.326Z,8.52
2023-03-20T11:04:36.272Z,8.80
2023-03-20T11:05:41.798Z,9.48
2023-03-20T11:07:01.840Z,8.25
2023-03-20T11:08:06.743Z,8.93
2023-03-20T11:09:18.260Z,11.40
2023-03-20T11:10:20.233Z,9.07
2023-03-20T11:11:26.492Z,9.93
2023-03-20T11:12:33.614Z,8.43
2023-03-20T11:13:39.955Z,9.05
2023-03-20T11:14:41.527Z,6.93
2023-03-20T11:15:44.334Z,7.70
2023-03-20T11:16:50.108Z,11.30
2023-03-20T11:17:56.651Z,7.78
2023-03-20T11:19:08.384Z,13.32
2023-03-20T11:20:14.329Z,10.63
2023-03-20T11:21:21.263Z,6.55
2023-03-20T11:22:26.567Z,6.95
2023-03-20T11:23:32.329Z,5.85
2023-03-20T11:24:39.016Z,12.85
2023-03-20T11:25:51.387Z,10.73
2023-03-20T11:26:54.965Z,11.50
2023-03-20T11:27:58.310Z,9.88
2023-03-20T11:29:02.303Z,9.95
2023-03-20T11:30:08.306Z,12.45
2023-03-20T11:31:27.199Z,7.70
2023-03-20T11:32:32.305Z,11.90
2023-03-20T11:33:38.603Z,6.95
2023-03-20T11:34:43.286Z,8.05
2023-03-20T11:35:46.329Z,8.73
2023-03-20T11:37:09.159Z,5.47
2023-03-20T11:38:16.588Z,3.30
2023-03-20T11:39:25.199Z,10.70
2023-03-20T11:40:32.508Z,7.03
2023-03-20T11:41:34.340Z,5.47
2023-03-20T11:42:37.140Z,4.78
2023-03-20T11:43:41.868Z,6.70
2023-03-20T11:44:58.790Z,6.95
2023-03-20T11:46:04.317Z,6.32
2023-03-20T11:47:13.530Z,7.72
2023-03-20T11:48:19.060Z,10.85
2023-03-20T11:49:25.493Z,6.03
2023-03-20T11:50:31.942Z,6.50
2023-03-20T11:51:37.998Z,12.10
2023-03-20T11:52:40.511Z,8.00
2023-03-20T11:53:55.240Z,3.45
2023-03-20T11:55:23.861Z,5.40
2023-03-20T11:56:27.206Z,8.15
2023-03-20T11:57:42.160Z,7.35
2023-03-20T11:58:51.540Z,5.13
2023-03-20T11:59:57.038Z,4.28
2023-03-20T12:01:01.634Z,5.85
2023-03-20T12:02:13.993Z,6.53
2023-03-20T12:03:41.702Z,7.40
2023-03-20T12:04:47.185Z,6.00
2023-03-20T12:05:49.178Z,5.72
2023-03-20T12:06:57.236Z,4.47
2023-03-20T12:08:03.162Z,8.10
2023-03-20T12:09:13.311Z,7.10
2023-03-20T12:10:19.271Z,4.68
2023-03-20T12:11:37.074Z,4.18
2023-03-20T12:12:45.673Z,9.00
2023-03-20T12:13:51.252Z,8.48
2023-03-20T12:15:03.873Z,4.68
2023-03-20T12:16:11.364Z,8.13
2023-03-20T12:17:34.544Z,10.23
2023-03-20T12:18:41.912Z,5.70
2023-03-20T12:19:45.865Z,6.38
2023-03-20T12:21:01.104Z,6.70
2023-03-20T12:22:15.990Z,3.50
2023-03-20T12:23:27.049Z,6.88
2023-03-20T12:24:36.818Z,4.25
2023-03-20T12:25:45.318Z,5.03
2023-03-20T12:26:55.697Z,4.93
2023-03-20T12:28:04.876Z,8.30
2023-03-20T12:29:11.313Z,7.75
2023-03-20T12:30:20.893Z,7.53
2023-03-20T12:31:27.260Z,6.15
2023-03-20T12:32:35.596Z,8.35
2023-03-20T12:33:48.678Z,4.55
2023-03-20T12:34:55.046Z,8.73
2023-03-20T12:35:59.418Z,9.77
2023-03-20T12:37:03.817Z,12.30
2023-03-20T12:38:16.969Z,6.18
2023-03-20T12:39:23.710Z,11.48
2023-03-20T12:40:37.820Z,7.57
2023-03-20T12:41:50.609Z,9.65
2023-03-20T12:43:04.922Z,13.77
2023-03-20T12:44:19.500Z,9.10
2023-03-20T12:45:33.534Z,6.40
2023-03-20T12:46:52.537Z,8.27
2023-03-20T12:48:07.472Z,6.32
2023-03-20T12:49:20.822Z,15.10
2023-03-20T12:50:32.735Z,9.40
2023-03-20T12:51:47.463Z,9.90
2023-03-20T12:52:58.951Z,9.65
2023-03-20T12:54:17.807Z,8.88
2023-03-20T12:55:32.183Z,11.07
2023-03-20T12:56:51.439Z,9.57
2023-03-20T12:58:03.169Z,7.38
2023-03-20T12:59:15.584Z,7.97
2023-03-20T13:00:30.855Z,9.13
2023-03-20T13:01:38.386Z,7.68
2023-03-20T13:02:56.603Z,7.75
2023-03-20T13:04:20.960Z,7.05
2023-03-20T13:05:37.744Z,8.15
2023-03-20T13:06:51.582Z,9.68
2023-03-20T13:08:11.143Z,6.72
2023-03-20T13:09:36.423Z,4.55
2023-03-20T13:10:41.551Z,6.78
2023-03-20T13:11:50.801Z,8.18
2023-03-20T13:13:10.221Z,8.80
2023-03-20T13:14:21.832Z,7.30
2023-03-20T13:15:35.421Z,14.38
2023-03-20T13:16:47.076Z,11.85
2023-03-20T13:17:55.381Z,12.88
2023-03-20T13:19:02.806Z,5.60
2023-03-20T13:20:20.224Z,12.43
2023-03-20T13:21:32.965Z,6.57
2023-03-20T13:22:49.258Z,9.95
2023-03-20T13:24:02.963Z,8.82
2023-03-20T13:25:17.920Z,5.90
2023-03-20T13:26:32.514Z,10.70
2023-03-20T13:27:41.997Z,8.32
2023-03-20T13:29:03.687Z,11.18
2023-03-20T13:30:18.071Z,8.20
2023-03-20T13:31:37.859Z,4.53
2023-03-20T13:32:53.728Z,11.63
2023-03-20T13:34:02.312Z,7.25
2023-03-20T13:35:26.807Z,8.70
2023-03-20T13:36:45.896Z,20.33
2023-03-20T13:37:51.815Z,11.10
2023-03-20T13:39:01.754Z,9.35
2023-03-20T13:40:13.199Z,6.88
2023-03-20T13:41:17.133Z,8.93
2023-03-20T13:42:22.113Z,9.40
2023-03-20T13:43:30.088Z,27.98
2023-03-20T13:44:35.656Z,8.00
2023-03-20T13:45:52.181Z,6.13
2023-03-20T13:46:59.485Z,5.47
2023-03-20T13:48:08.639Z,6.65
2023-03-20T13:49:17.361Z,14.82
2023-03-20T13:50:37.103Z,13.55
2023-03-20T13:51:43.807Z,6.50
2023-03-20T13:52:50.102Z,5.60
2023-03-20T13:54:02.532Z,9.45
2023-03-20T13:55:19.841Z,12.07
2023-03-20T13:56:31.468Z,7.90
2023-03-20T13:57:49.475Z,16.63
2023-03-20T13:59:25.914Z,7.43
2023-03-20T14:00:36.777Z,10.75
2023-03-20T14:01:50.855Z,12.90
2023-03-20T14:03:12.163Z,9.82
2023-03-20T14:04:19.277Z,6.57
2023-03-20T14:05:37.702Z,11.15
2023-03-20T14:06:53.247Z,4.45
2023-03-20T14:07:57.889Z,9.80
2023-03-20T14:09:00.806Z,8.98
2023-03-20T14:10:38.030Z,9.70
2023-03-20T14:11:40.787Z,6.55
2023-03-20T14:12:42.454Z,13.65
2023-03-20T14:13:48.481Z,6.57
2023-03-20T14:14:56.271Z,8.30
2023-03-20T14:16:03.403Z,7.47
2023-03-20T14:17:16.760Z,10.23
2023-03-20T14:18:23.762Z,9.50
2023-03-20T14:19:27.593Z,14.88
2023-03-20T14:20:33.031Z,22.60
2023-03-20T14:21:35.970Z,8.45
2023-03-20T14:22:41.103Z,9.38
2023-03-20T14:23:49.111Z,6.65
2023-03-20T14:24:57.644Z,7.28
2023-03-20T14:26:00.773Z,10.27
2023-03-20T14:27:04.061Z,12.75
2023-03-20T14:28:24.165Z,14.75
2023-03-20T14:29:38.691Z,8.73
2023-03-20T14:30:43.798Z,6.85
2023-03-20T14:31:52.049Z,10.55
2023-03-20T14:33:01.542Z,11.45
2023-03-20T14:34:18.969Z,11.95
2023-03-20T14:35:25.657Z,10.38
2023-03-20T14:36:31.615Z,13.13
2023-03-20T14:37:40.096Z,12.77
2023-03-20T14:38:54.166Z,14.50
2023-03-20T14:40:04.063Z,8.98
2023-03-20T14:41:15.649Z,8.52
2023-03-20T14:42:33.856Z,4.90
2023-03-20T14:43:56.781Z,6.57
2023-03-20T14:45:28.467Z,7.57
2023-03-20T14:46:41.442Z,8.93
2023-03-20T14:47:50.713Z,9.75
2023-03-20T14:48:55.821Z,7.03
2023-03-20T14:50:10.215Z,10.95
2023-03-20T14:51:23.858Z,6.57
2023-03-20T14:52:50.390Z,7.00
2023-03-20T14:53:57.728Z,7.20
2023-03-20T14:55:28.914Z,8.43
2023-03-20T14:56:34.449Z,8.45
2023-03-20T14:57:54.704Z,10.07
2023-03-20T14:59:03.007Z,13.68
2023-03-20T15:00:08.264Z,7.75
2023-03-20T15:01:41.976Z,23.73
2023-03-20T15:02:49.092Z,5.70
2023-03-20T15:03:53.506Z,8.75
2023-03-20T15:04:57.270Z,6.97
2023-03-20T15:06:04.566Z,10.32
2023-03-20T15:07:15.343Z,9.52
2023-03-20T15:08:23.648Z,15.23
2023-03-20T15:09:28.414Z,8.80
2023-03-20T15:10:31.211Z,8.82
2023-03-20T15:11:33.815Z,8.57
2023-03-20T15:12:38.132Z,6.35
2023-03-20T15:13:42.226Z,7.63
2023-03-20T15:14:49.917Z,7.88